Time;durP1;ratioP1;P1;durP2;ratioP2;P2;SDS_P1;SDS_P2;PMS_P1;PMS_P2;Temp;Humidity;BMP_temperature;BMP_pressure;BME280_temperature;BME280_humidity;BME280_pressure;Samples;Min_cycle;Max_cycle;Signal;HPM_P1;HPM_P2
2022/06/07 00:01:32;;;;;;;20.00;3.08;;;17.00;99.90;;;;;;5002608;28;20022;-80
2022/06/07 00:03:59;;;;;;;24.48;3.55;;;17.00;99.90;;;;;;5003894;28;20254;-81
2022/06/07 00:06:24;;;;;;;24.88;3.55;;;17.00;99.90;;;;;;5003739;28;20068;-81
2022/06/07 00:08:51;;;;;;;16.63;3.55;;;17.00;99.90;;;;;;5003205;28;20022;-80
2022/06/07 00:11:18;;;;;;;22.38;3.80;;;17.00;99.90;;;;;;5003303;28;20042;-80
2022/06/07 00:13:45;;;;;;;25.60;3.58;;;17.00;99.90;;;;;;5002564;28;20034;-81
2022/06/07 00:16:11;;;;;;;20.48;3.45;;;17.00;99.90;;;;;;5003298;28;20041;-80
2022/06/07 00:18:37;;;;;;;23.85;4.20;;;17.00;99.90;;;;;;5002187;28;20071;-81
2022/06/07 00:21:03;;;;;;;21.98;4.47;;;17.00;99.90;;;;;;5003336;28;20026;-81
2022/06/07 00:23:31;;;;;;;15.57;3.90;;;17.00;99.90;;;;;;5002831;28;20022;-80
2022/06/07 00:25:58;;;;;;;28.08;4.28;;;17.10;99.90;;;;;;5002175;28;20496;-80
2022/06/07 00:28:25;;;;;;;25.05;3.42;;;17.00;99.90;;;;;;5001859;28;20490;-80
2022/06/07 00:30:52;;;;;;;28.15;4.35;;;17.00;99.90;;;;;;5001942;28;20046;-80
2022/06/07 00:33:19;;;;;;;31.33;4.43;;;16.90;99.90;;;;;;5002122;28;20026;-80
2022/06/07 00:35:45;;;;;;;23.27;3.65;;;16.90;99.90;;;;;;5003016;28;20037;-80
2022/06/07 00:38:11;;;;;;;21.13;3.58;;;16.90;99.90;;;;;;5002677;28;20030;-80
2022/06/07 00:40:37;;;;;;;23.17;4.60;;;16.90;99.90;;;;;;5003260;28;20053;-80
2022/06/07 00:43:03;;;;;;;24.02;4.25;;;16.90;99.90;;;;;;5001999;28;20046;-80
2022/06/07 00:45:29;;;;;;;21.00;3.80;;;16.80;99.90;;;;;;5003075;28;20172;-80
2022/06/07 00:47:55;;;;;;;21.48;3.45;;;16.80;99.90;;;;;;5002384;28;20133;-81
2022/06/07 00:50:43;;;;;;;23.80;4.03;;;16.80;99.90;;;;;;5002506;28;20038;-81
2022/06/07 00:53:21;;;;;;;27.92;4.00;;;16.70;99.90;;;;;;5000741;28;20018;-81
2022/06/07 00:55:46;;;;;;;23.17;3.45;;;16.80;99.90;;;;;;5002305;28;20023;-81
2022/06/07 00:58:12;;;;;;;23.08;3.88;;;16.80;99.90;;;;;;5001707;28;20037;-80
2022/06/07 01:00:38;;;;;;;22.55;3.30;;;16.80;99.90;;;;;;5001556;28;20022;-80
2022/06/07 01:03:03;;;;;;;19.30;3.50;;;16.80;99.90;;;;;;5001923;28;20034;-81
2022/06/07 01:05:29;;;;;;;17.92;3.53;;;16.90;99.90;;;;;;5001440;28;20334;-80
2022/06/07 01:10:46;;;;;;;26.05;4.43;;;17.00;99.90;;;;;;5002011;28;20284;-80
2022/06/07 01:13:17;;;;;;;27.88;3.63;;;16.90;99.90;;;;;;5001430;28;20053;-80
2022/06/07 01:15:45;;;;;;;22.27;4.03;;;16.90;99.90;;;;;;5002769;28;20022;-80
2022/06/07 01:18:12;;;;;;;19.10;3.67;;;17.00;99.90;;;;;;5001121;28;20183;-80
2022/06/07 01:20:38;;;;;;;19.52;3.40;;;17.00;99.90;;;;;;5001724;28;20258;-80
2022/06/07 01:23:04;;;;;;;21.83;3.83;;;17.00;99.90;;;;;;5001493;28;20097;-80
2022/06/07 01:25:29;;;;;;;28.58;4.63;;;17.00;99.90;;;;;;5002048;28;20145;-80
2022/06/07 01:27:55;;;;;;;20.65;3.40;;;16.90;99.90;;;;;;5002164;28;20056;-81
2022/06/07 01:30:21;;;;;;;23.88;3.67;;;16.90;99.90;;;;;;4999400;28;20507;-80
2022/06/07 01:32:47;;;;;;;26.40;3.88;;;16.80;99.90;;;;;;5001442;28;20042;-80
2022/06/07 01:35:12;;;;;;;29.15;5.60;;;16.80;99.90;;;;;;4999813;28;20025;-80
2022/06/07 01:37:38;;;;;;;28.05;3.30;;;16.80;99.90;;;;;;5001009;28;20334;-81
2022/06/07 01:42:51;;;;;;;20.10;3.38;;;16.80;99.90;;;;;;5001333;28;20205;-80
2022/06/07 01:45:18;;;;;;;27.17;4.28;;;16.80;99.90;;;;;;5001184;28;20022;-81
2022/06/07 01:47:44;;;;;;;24.92;3.58;;;16.90;99.90;;;;;;5001341;28;20045;-80
2022/06/07 01:50:09;;;;;;;23.40;4.68;;;16.90;99.90;;;;;;5001285;28;20035;-80
2022/06/07 01:52:37;;;;;;;24.60;3.75;;;16.90;99.90;;;;;;5001136;28;20030;-81
2022/06/07 01:55:04;;;;;;;21.40;3.13;;;16.90;99.90;;;;;;5001713;28;20057;-80
2022/06/07 01:57:31;;;;;;;26.52;4.00;;;16.80;99.90;;;;;;5001177;28;20033;-80
2022/06/07 02:00:00;;;;;;;27.85;3.83;;;16.90;99.90;;;;;;5000662;28;20214;-80
2022/06/07 02:02:27;;;;;;;20.52;4.00;;;16.90;99.90;;;;;;5000551;28;21247;-80
2022/06/07 02:04:54;;;;;;;20.77;3.45;;;16.80;99.90;;;;;;5000509;28;20014;-81
2022/06/07 02:07:20;;;;;;;23.13;3.72;;;16.80;99.90;;;;;;5000761;28;20126;-80
2022/06/07 02:09:46;;;;;;;27.55;3.78;;;16.80;99.90;;;;;;5001033;28;20057;-81
2022/06/07 02:12:12;;;;;;;24.80;3.88;;;16.80;99.90;;;;;;5001529;28;20361;-80
2022/06/07 02:14:39;;;;;;;20.10;3.13;;;16.80;99.90;;;;;;5000344;28;20026;-79
2022/06/07 02:17:05;;;;;;;23.90;4.10;;;16.80;99.90;;;;;;5001600;28;20061;-80
2022/06/07 02:19:31;;;;;;;27.98;3.70;;;16.80;99.90;;;;;;5001624;28;20402;-80
2022/06/07 02:21:57;;;;;;;25.48;3.88;;;16.80;99.90;;;;;;5000928;28;20034;-81
2022/06/07 02:24:22;;;;;;;26.02;3.60;;;16.70;99.90;;;;;;5001066;28;20083;-80
2022/06/07 02:26:55;;;;;;;29.23;4.47;;;16.70;99.90;;;;;;5001358;28;20089;-80
2022/06/07 02:29:30;;;;;;;30.45;5.03;;;16.70;99.90;;;;;;4999468;28;20054;-80
2022/06/07 02:32:00;;;;;;;27.10;3.72;;;16.70;99.90;;;;;;4999966;28;20257;-81
2022/06/07 02:34:26;;;;;;;23.48;3.88;;;16.70;99.90;;;;;;5000819;28;20102;-80
2022/06/07 02:36:56;;;;;;;19.67;3.45;;;16.80;99.90;;;;;;5000883;28;20018;-80
2022/06/07 02:39:22;;;;;;;22.77;3.47;;;16.80;99.90;;;;;;5001402;28;20118;-80
2022/06/07 02:41:49;;;;;;;21.95;3.67;;;16.80;99.90;;;;;;5000336;28;20018;-80
2022/06/07 02:44:15;;;;;;;17.15;3.00;;;16.80;99.90;;;;;;5001279;28;20076;-81
2022/06/07 02:46:41;;;;;;;19.52;3.30;;;16.90;99.90;;;;;;5000709;28;20250;-80
2022/06/07 02:49:06;;;;;;;18.80;3.15;;;16.90;99.90;;;;;;5000764;28;20254;-80
2022/06/07 02:51:32;;;;;;;20.52;2.70;;;17.00;99.90;;;;;;5000813;28;20040;-81
2022/06/07 02:53:58;;;;;;;20.95;3.63;;;17.00;99.90;;;;;;5001090;28;20027;-80
2022/06/07 02:56:23;;;;;;;23.95;3.45;;;17.10;99.90;;;;;;4999594;28;20211;-80
2022/06/07 02:58:49;;;;;;;24.95;3.50;;;17.10;99.90;;;;;;5000936;28;20026;-80
2022/06/07 03:01:15;;;;;;;23.50;3.53;;;17.10;99.90;;;;;;4999997;28;20065;-80
2022/06/07 03:03:40;;;;;;;22.90;3.88;;;17.10;99.90;;;;;;4999785;28;20394;-80
2022/06/07 03:06:06;;;;;;;23.63;3.15;;;17.10;99.90;;;;;;5001395;28;20301;-81
2022/06/07 03:08:32;;;;;;;16.85;3.28;;;17.10;99.90;;;;;;4999729;28;20026;-80
2022/06/07 03:10:58;;;;;;;27.08;3.47;;;17.10;99.90;;;;;;5001040;28;20070;-81
2022/06/07 03:13:27;;;;;;;24.35;2.63;;;17.00;99.90;;;;;;4999701;28;20031;-81
2022/06/07 03:15:53;;;;;;;20.38;3.60;;;17.10;99.90;;;;;;5000879;28;20070;-81
2022/06/07 03:18:19;;;;;;;20.50;3.08;;;17.10;99.90;;;;;;4999582;28;20037;-80
2022/06/07 03:20:50;;;;;;;20.48;3.45;;;17.10;99.90;;;;;;5000989;28;20034;-81
2022/06/07 03:23:16;;;;;;;27.13;4.38;;;17.10;99.90;;;;;;4999410;28;20377;-81
2022/06/07 03:25:42;;;;;;;27.10;4.40;;;17.10;99.90;;;;;;5000873;28;20034;-80
2022/06/07 03:28:09;;;;;;;23.15;4.43;;;17.10;99.90;;;;;;5000398;28;20030;-80
2022/06/07 03:30:35;;;;;;;28.15;4.20;;;17.10;99.90;;;;;;5000406;28;20054;-81
2022/06/07 03:33:00;;;;;;;25.27;4.53;;;17.10;99.90;;;;;;5000054;28;20080;-80
2022/06/07 03:35:26;;;;;;;22.77;5.38;;;17.10;99.90;;;;;;5001574;28;20030;-80
2022/06/07 03:37:52;;;;;;;29.55;4.75;;;17.10;99.90;;;;;;5000643;28;20029;-80
2022/06/07 03:40:42;;;;;;;23.25;4.80;;;17.10;99.90;;;;;;5000942;28;20199;-80
2022/06/07 03:43:05;;;;;;;24.08;4.88;;;17.00;99.90;;;;;;5000457;28;20077;-81
2022/06/07 03:45:31;;;;;;;23.05;4.45;;;17.00;99.90;;;;;;4981534;28;20023;-80
2022/06/07 03:47:57;;;;;;;32.75;4.80;;;16.90;99.90;;;;;;5000363;28;20325;-80
2022/06/07 03:50:23;;;;;;;24.20;4.38;;;16.80;99.90;;;;;;4999771;28;20026;-81
2022/06/07 03:52:48;;;;;;;27.20;4.07;;;16.80;99.90;;;;;;5001346;28;20056;-81
2022/06/07 03:55:14;;;;;;;28.88;4.78;;;16.80;99.90;;;;;;5003676;28;20322;-81
2022/06/07 03:57:40;;;;;;;25.73;5.13;;;16.80;99.90;;;;;;5003329;28;20050;-81
2022/06/07 04:00:06;;;;;;;38.67;5.35;;;16.70;99.90;;;;;;5003898;28;20053;-81
2022/06/07 04:02:33;;;;;;;30.75;5.32;;;16.70;99.90;;;;;;5003132;28;20018;-80
2022/06/07 04:04:58;;;;;;;34.28;5.65;;;16.70;99.90;;;;;;5003427;28;20034;-79
2022/06/07 04:10:08;;;;;;;23.27;4.03;;;16.50;99.90;;;;;;5003697;28;20093;-80
2022/06/07 04:12:34;;;;;;;22.23;3.80;;;16.30;99.90;;;;;;5003152;28;20245;-80
2022/06/07 04:15:00;;;;;;;25.45;4.13;;;16.20;99.90;;;;;;5002954;28;20023;-79
2022/06/07 04:17:25;;;;;;;21.95;4.47;;;16.10;99.90;;;;;;5002659;28;20043;-79
2022/06/07 04:19:51;;;;;;;19.98;5.43;;;16.10;99.90;;;;;;5002292;28;20031;-79
2022/06/07 04:22:17;;;;;;;29.60;6.18;;;16.10;99.90;;;;;;5003000;28;20108;-79
2022/06/07 04:24:42;;;;;;;25.98;5.53;;;16.10;99.90;;;;;;5003012;28;20026;-80
2022/06/07 04:27:08;;;;;;;34.45;7.38;;;16.10;99.90;;;;;;5003400;28;20026;-80
2022/06/07 04:29:34;;;;;;;32.80;7.93;;;16.10;99.90;;;;;;5003342;28;20022;-80
2022/06/07 04:32:00;;;;;;;31.13;8.15;;;16.10;99.90;;;;;;5002309;28;20050;-80
2022/06/07 04:34:26;;;;;;;38.78;9.40;;;16.20;99.90;;;;;;5002513;28;20067;-80
2022/06/07 04:36:52;;;;;;;31.58;8.10;;;16.20;99.90;;;;;;5002571;28;20050;-81
2022/06/07 04:39:17;;;;;;;47.03;18.02;;;16.20;99.90;;;;;;5002337;28;20350;-81
2022/06/07 04:41:43;;;;;;;32.40;9.55;;;16.20;99.90;;;;;;5002618;28;20218;-81
2022/06/07 04:44:09;;;;;;;28.63;5.80;;;16.20;99.90;;;;;;5002617;28;20108;-81
2022/06/07 04:46:35;;;;;;;31.40;6.55;;;16.30;99.90;;;;;;5003028;28;20076;-81
2022/06/07 04:49:00;;;;;;;32.63;6.50;;;16.30;99.90;;;;;;5002493;28;20053;-80
2022/06/07 04:51:29;;;;;;;39.55;9.05;;;16.30;99.90;;;;;;5002575;28;20027;-80
2022/06/07 04:53:56;;;;;;;33.28;6.70;;;16.40;99.90;;;;;;5001759;28;20117;-80
2022/06/07 04:56:24;;;;;;;31.88;5.50;;;16.40;99.90;;;;;;5003297;28;20095;-80
2022/06/07 04:58:50;;;;;;;24.60;6.05;;;16.50;99.90;;;;;;5002673;28;20059;-80
2022/06/07 05:01:25;;;;;;;29.52;4.72;;;16.50;99.90;;;;;;5002479;28;20035;-80
2022/06/07 05:03:52;;;;;;;26.75;5.38;;;16.50;99.90;;;;;;5002186;28;20318;-80
2022/06/07 05:06:26;;;;;;;26.48;5.15;;;16.50;99.90;;;;;;5001592;28;20361;-80
2022/06/07 05:08:54;;;;;;;31.50;5.25;;;16.60;99.90;;;;;;5002971;28;20310;-80
2022/06/07 05:11:20;;;;;;;34.22;5.45;;;16.60;99.90;;;;;;5002392;28;20062;-80
2022/06/07 05:13:46;;;;;;;33.33;5.28;;;16.70;99.90;;;;;;5002612;28;20227;-80
2022/06/07 05:16:12;;;;;;;29.45;5.38;;;16.60;99.90;;;;;;5002971;28;20192;-79
2022/06/07 05:18:38;;;;;;;30.75;5.63;;;16.70;99.90;;;;;;5002093;28;20084;-79
2022/06/07 05:21:06;;;;;;;25.60;4.32;;;16.70;99.90;;;;;;4990746;28;20037;-80
2022/06/07 05:23:31;;;;;;;25.08;5.10;;;16.80;99.90;;;;;;4972946;28;20037;-80
2022/06/07 05:26:10;;;;;;;32.72;6.25;;;16.90;99.90;;;;;;4987078;28;20026;-80
2022/06/07 05:28:40;;;;;;;33.22;6.53;;;16.90;99.90;;;;;;4988269;28;20033;-80
2022/06/07 05:31:05;;;;;;;21.35;6.10;;;16.90;99.90;;;;;;4987626;28;20419;-80
2022/06/07 05:33:31;;;;;;;29.10;5.82;;;17.00;99.90;;;;;;4977143;28;20029;-80
2022/06/07 05:35:58;;;;;;;35.50;6.43;;;17.10;99.90;;;;;;4972485;28;20122;-80
2022/06/07 05:38:24;;;;;;;30.98;5.65;;;17.10;99.90;;;;;;4972447;28;20015;-80
2022/06/07 05:40:51;;;;;;;29.48;5.30;;;17.10;99.90;;;;;;4972567;28;20052;-80
2022/06/07 05:43:17;;;;;;;19.92;5.30;;;17.20;99.90;;;;;;4972710;28;20090;-80
2022/06/07 05:45:48;;;;;;;33.42;5.72;;;17.20;99.90;;;;;;4972483;28;20106;-80
2022/06/07 05:48:13;;;;;;;29.85;4.93;;;17.30;99.90;;;;;;4972430;28;20073;-80
2022/06/07 05:50:39;;;;;;;25.25;5.05;;;17.30;99.90;;;;;;4970965;28;20034;-79
2022/06/07 05:53:05;;;;;;;34.85;6.03;;;17.40;99.90;;;;;;4972080;28;20029;-80
2022/06/07 05:55:30;;;;;;;20.30;5.22;;;17.40;99.90;;;;;;4972176;28;20046;-80
2022/06/07 05:57:59;;;;;;;22.25;4.60;;;17.50;99.90;;;;;;4972260;28;20031;-80
2022/06/07 06:00:26;;;;;;;26.95;3.97;;;17.50;99.90;;;;;;4972046;28;20023;-82
2022/06/07 06:02:51;;;;;;;26.13;5.82;;;17.50;99.90;;;;;;4972345;28;20030;-80
2022/06/07 06:05:18;;;;;;;31.75;5.90;;;17.50;99.90;;;;;;4972103;28;20395;-80
2022/06/07 06:10:28;;;;;;;28.38;4.57;;;17.70;99.90;;;;;;4990427;28;20041;-80
2022/06/07 06:12:54;;;;;;;23.48;3.92;;;17.70;99.90;;;;;;4990474;28;20399;-80
2022/06/07 06:15:21;;;;;;;23.52;3.80;;;17.80;99.90;;;;;;4988783;28;20034;-80
2022/06/07 06:17:47;;;;;;;33.40;4.53;;;17.90;99.90;;;;;;4990608;28;20022;-80
2022/06/07 06:20:13;;;;;;;23.98;4.88;;;17.80;99.90;;;;;;4988502;28;20448;-79
2022/06/07 06:22:39;;;;;;;27.67;3.80;;;17.80;99.90;;;;;;4972287;28;20031;-95
2022/06/07 06:25:06;;;;;;;23.13;4.22;;;17.80;99.90;;;;;;4972135;28;20456;-79
2022/06/07 06:27:33;;;;;;;30.63;4.78;;;17.90;99.90;;;;;;4971898;28;20388;-79
2022/06/07 06:29:59;;;;;;;17.75;4.03;;;17.90;99.90;;;;;;4971374;28;20036;-79
2022/06/07 06:32:25;;;;;;;22.23;3.78;;;18.00;99.90;;;;;;4971402;28;20057;-79
2022/06/07 06:34:51;;;;;;;26.90;5.32;;;18.10;99.90;;;;;;4971627;28;20031;-79
2022/06/07 06:37:18;;;;;;;27.67;4.13;;;18.20;99.90;;;;;;4971635;28;20046;-79
2022/06/07 06:39:43;;;;;;;25.88;4.53;;;18.20;99.90;;;;;;4971762;28;20415;-79
2022/06/07 06:42:09;;;;;;;26.02;4.10;;;18.30;99.90;;;;;;4971548;28;20031;-79
2022/06/07 06:44:35;;;;;;;18.35;4.25;;;18.30;99.90;;;;;;4971402;28;20448;-79
2022/06/07 06:47:01;;;;;;;25.77;4.05;;;18.40;99.90;;;;;;4970254;28;20535;-79
2022/06/07 06:49:28;;;;;;;22.25;4.15;;;18.30;99.90;;;;;;4971288;28;20026;-79
2022/06/07 06:51:55;;;;;;;25.27;4.47;;;18.30;99.90;;;;;;4971317;28;20054;-79
2022/06/07 06:54:21;;;;;;;30.50;4.43;;;18.20;99.90;;;;;;4971315;28;20078;-79
2022/06/07 06:56:47;;;;;;;28.27;4.15;;;18.20;99.90;;;;;;4971506;28;20018;-79
2022/06/07 06:59:14;;;;;;;20.63;3.85;;;18.20;99.90;;;;;;4971232;28;20582;-79
2022/06/07 07:01:41;;;;;;;27.15;4.05;;;18.20;99.90;;;;;;4971365;28;20061;-79
2022/06/07 07:04:13;;;;;;;22.67;4.07;;;18.20;99.90;;;;;;4970197;28;20476;-79
2022/06/07 07:06:39;;;;;;;19.40;3.70;;;18.30;99.90;;;;;;4971338;28;20105;-79
2022/06/07 07:09:06;;;;;;;20.92;3.92;;;18.30;99.90;;;;;;4971290;28;20106;-79
2022/06/07 07:11:45;;;;;;;19.40;3.50;;;18.50;99.90;;;;;;4971171;28;20027;-79
2022/06/07 07:14:11;;;;;;;18.50;3.33;;;18.50;99.90;;;;;;4971004;28;20057;-79
2022/06/07 07:16:41;;;;;;;23.35;3.22;;;18.40;99.90;;;;;;4971305;28;20093;-79
2022/06/07 07:19:08;;;;;;;28.00;4.15;;;18.40;99.90;;;;;;4971282;28;20077;-79
2022/06/07 07:21:36;;;;;;;17.02;2.88;;;18.30;99.90;;;;;;4971498;28;20035;-79
2022/06/07 07:24:09;;;;;;;17.60;3.00;;;18.30;99.90;;;;;;4971320;28;20031;-79
2022/06/07 07:26:36;;;;;;;14.70;3.50;;;18.20;99.90;;;;;;4971128;28;20023;-79
2022/06/07 07:29:03;;;;;;;20.38;3.90;;;18.20;99.90;;;;;;4974858;28;20031;-79
2022/06/07 07:31:36;;;;;;;15.63;3.10;;;18.20;99.90;;;;;;4974553;28;20058;-79
2022/06/07 07:34:04;;;;;;;18.90;4.30;;;18.20;99.90;;;;;;4974784;28;20106;-80
2022/06/07 07:36:30;;;;;;;29.88;3.53;;;18.40;99.90;;;;;;4974721;28;20037;-80
2022/06/07 07:38:56;;;;;;;22.77;3.28;;;18.30;99.90;;;;;;4974933;28;20072;-79
2022/06/07 07:41:28;;;;;;;18.48;3.20;;;18.40;99.90;;;;;;4974772;28;20046;-79
2022/06/07 07:43:55;;;;;;;16.02;2.42;;;18.30;99.90;;;;;;4974926;28;20042;-80
2022/06/07 07:46:23;;;;;;;20.60;3.33;;;18.30;99.90;;;;;;4974695;28;20023;-80
2022/06/07 07:48:49;;;;;;;15.93;3.10;;;18.40;99.90;;;;;;4974465;28;20408;-79
2022/06/07 07:51:21;;;;;;;17.17;3.53;;;18.50;99.90;;;;;;4974468;28;20483;-80
2022/06/07 07:53:47;;;;;;;16.73;2.63;;;18.50;99.90;;;;;;4974272;28;20046;-80
2022/06/07 07:56:14;;;;;;;16.45;2.65;;;18.60;99.90;;;;;;4974389;28;20031;-80
2022/06/07 07:58:40;;;;;;;14.15;2.95;;;18.70;99.90;;;;;;4974337;28;20388;-80
2022/06/07 08:01:14;;;;;;;15.63;2.65;;;18.80;99.90;;;;;;4974451;28;20030;-80
2022/06/07 08:03:41;;;;;;;16.67;2.80;;;18.90;99.90;;;;;;4974086;28;20023;-80
2022/06/07 08:06:12;;;;;;;17.73;2.92;;;19.10;99.90;;;;;;4974377;28;20030;-80
2022/06/07 08:08:39;;;;;;;15.10;2.63;;;19.10;99.90;;;;;;4974302;28;20050;-80
2022/06/07 08:11:05;;;;;;;22.33;3.75;;;19.10;99.90;;;;;;4974004;28;20038;-80
2022/06/07 08:13:31;;;;;;;24.33;3.42;;;19.00;99.90;;;;;;4974028;28;20058;-80
2022/06/07 08:15:57;;;;;;;16.90;3.05;;;18.90;99.90;;;;;;4974021;28;20041;-80
2022/06/07 08:18:24;;;;;;;24.48;3.80;;;18.90;99.90;;;;;;4974037;28;20011;-80
2022/06/07 08:20:50;;;;;;;16.75;2.90;;;18.90;99.90;;;;;;4974177;28;20058;-80
2022/06/07 08:23:16;;;;;;;22.77;3.10;;;18.90;99.90;;;;;;4974080;28;20015;-79
2022/06/07 08:25:42;;;;;;;14.23;3.10;;;19.00;99.90;;;;;;4974128;28;20089;-79
2022/06/07 08:28:08;;;;;;;24.88;3.70;;;19.10;99.90;;;;;;4974060;28;20031;-79
2022/06/07 08:30:37;;;;;;;19.17;3.15;;;19.10;99.90;;;;;;4973411;28;20042;-79
2022/06/07 08:37:32;;;;;;;22.27;3.55;;;19.20;99.90;;;;;;4973674;28;20042;-79
2022/06/07 08:38:33;;;;;;;20.52;3.70;;;19.50;99.90;;;;;;4992325;28;20505;-79
2022/06/07 08:40:58;;;;;;;24.13;4.72;;;19.40;99.90;;;;;;4992234;28;20030;-79
2022/06/07 08:43:25;;;;;;;16.35;2.88;;;19.50;99.90;;;;;;4992389;28;20081;-79
2022/06/07 08:45:53;;;;;;;23.80;3.40;;;19.50;99.90;;;;;;4992377;28;20030;-79
2022/06/07 08:48:32;;;;;;;20.52;4.10;;;19.60;99.90;;;;;;4992233;28;20038;-80
2022/06/07 08:51:28;;;;;;;19.08;2.95;;;19.60;99.90;;;;;;4992020;28;20034;-79
2022/06/07 08:53:58;;;;;;;18.98;3.40;;;19.60;99.90;;;;;;4991961;28;20029;-79
2022/06/07 08:56:31;;;;;;;25.67;3.58;;;19.60;99.90;;;;;;4992056;28;20112;-79
2022/06/07 08:59:05;;;;;;;26.77;3.80;;;19.70;99.90;;;;;;4991976;28;20032;-79
2022/06/07 09:01:43;;;;;;;17.67;2.83;;;19.70;99.90;;;;;;4992153;28;20387;-79
2022/06/07 09:04:22;;;;;;;23.10;3.42;;;19.70;99.90;;;;;;4990667;28;20318;-79
2022/06/07 09:06:57;;;;;;;19.73;3.65;;;19.50;99.90;;;;;;4992280;28;20353;-79
2022/06/07 09:12:09;;;;;;;23.10;3.58;;;19.50;99.90;;;;;;4991780;28;20026;-79
2022/06/07 09:12:16;;;;;;;23.95;4.25;;;19.80;99.90;;;;;;4991608;28;20078;-79
2022/06/07 09:14:47;;;;;;;20.48;3.33;;;19.80;99.90;;;;;;4990029;28;20030;-79
2022/06/07 09:17:35;;;;;;;18.20;3.55;;;19.70;99.90;;;;;;4991471;28;20030;-79
2022/06/07 09:20:02;;;;;;;18.13;3.63;;;19.60;99.90;;;;;;4991428;28;20034;-79
2022/06/07 09:22:48;;;;;;;16.40;2.42;;;19.30;99.90;;;;;;4991434;28;20552;-79
2022/06/07 09:25:20;;;;;;;15.02;2.22;;;19.40;99.90;;;;;;4973326;28;20486;-79
2022/06/07 09:27:47;;;;;;;20.55;3.08;;;19.50;99.90;;;;;;4973033;28;20015;-79
2022/06/07 09:30:16;;;;;;;15.35;2.85;;;19.70;99.90;;;;;;4971427;28;20107;-79
2022/06/07 09:32:43;;;;;;;18.55;2.55;;;19.60;99.90;;;;;;4972754;28;20626;-79
2022/06/07 09:35:20;;;;;;;11.18;2.58;;;19.50;99.90;;;;;;4972789;28;20019;-79
2022/06/07 09:37:56;;;;;;;24.67;2.50;;;19.70;99.90;;;;;;4972542;28;20030;-80
2022/06/07 09:40:31;;;;;;;17.35;3.20;;;19.90;99.90;;;;;;4971190;28;20122;-80
2022/06/07 09:43:06;;;;;;;16.17;2.85;;;20.00;99.90;;;;;;4972741;28;20187;-80
2022/06/07 09:45:43;;;;;;;;;;;20.10;99.90;;;;;;4972751;28;20031;-80
2022/06/07 09:48:42;;;;;;;19.67;2.92;;;20.30;99.90;;;;;;4985150;28;20042;-79
2022/06/07 09:51:19;;;;;;;14.07;2.50;;;20.40;99.90;;;;;;4989274;28;20038;-80
2022/06/07 09:54:15;;;;;;;18.02;2.95;;;20.50;99.90;;;;;;4990925;28;20387;-80
2022/06/07 09:57:10;;;;;;;30.25;4.70;;;20.60;99.90;;;;;;4991088;28;20030;-79
2022/06/07 09:59:38;;;;;;;;;;;20.60;99.90;;;;;;4989868;28;20598;-79
2022/06/07 10:02:19;;;;;;;18.77;3.25;;;21.10;99.90;;;;;;4990979;28;19915;-80
2022/06/07 10:05:15;;;;;;;18.55;2.50;;;21.00;99.90;;;;;;4991331;28;20123;-79
2022/06/07 10:08:15;;;;;;;15.35;2.85;;;20.80;99.90;;;;;;4990947;28;20509;-79
2022/06/07 10:10:54;;;;;;;12.40;2.10;;;20.70;99.90;;;;;;4991041;28;20331;-79
2022/06/07 10:13:26;;;;;;;14.55;2.70;;;20.70;99.90;;;;;;4990390;28;20026;-79
2022/06/07 10:15:51;;;;;;;15.10;2.30;;;20.70;99.90;;;;;;4990394;28;20114;-79
2022/06/07 10:18:38;;;;;;;12.15;2.20;;;20.70;99.90;;;;;;4990593;28;20117;-79
2022/06/07 10:21:09;;;;;;;13.18;2.40;;;20.60;99.90;;;;;;4991187;28;20093;-79
2022/06/07 10:24:00;;;;;;;11.93;2.42;;;20.50;99.90;;;;;;4992768;28;20033;-79
2022/06/07 10:26:45;;;;;;;8.00;1.55;;;20.40;99.90;;;;;;4990370;28;20049;-79
2022/06/07 10:29:25;;;;;;;12.43;2.15;;;20.30;99.90;;;;;;4989002;28;20033;-79
2022/06/07 10:32:00;;;;;;;16.27;2.97;;;20.40;99.90;;;;;;4990027;28;20077;-79
2022/06/07 10:34:58;;;;;;;20.05;2.70;;;20.30;99.90;;;;;;4990493;28;20464;-79
2022/06/07 10:37:28;;;;;;;14.15;2.65;;;20.40;99.90;;;;;;4951794;28;20162;-79
2022/06/07 10:40:23;;;;;;;14.43;2.35;;;20.40;99.90;;;;;;4990412;28;20406;-79
2022/06/07 10:42:55;;;;;;;11.23;2.45;;;20.50;99.90;;;;;;4987262;28;20081;-79
2022/06/07 10:45:26;;;;;;;13.63;2.65;;;20.60;99.90;;;;;;4975924;28;20396;-79
2022/06/07 10:47:59;;;;;;;8.38;1.48;;;20.60;99.90;;;;;;4984562;28;20520;-79
2022/06/07 10:50:30;;;;;;;13.38;2.50;;;20.40;99.90;;;;;;4972259;28;20097;-79
2022/06/07 10:53:02;;;;;;;15.30;2.13;;;20.30;99.90;;;;;;4971108;28;20440;-79
2022/06/07 10:55:45;;;;;;;17.08;2.70;;;20.30;99.90;;;;;;4977322;28;20072;-79
2022/06/07 10:58:27;;;;;;;9.82;2.22;;;20.30;99.90;;;;;;4979462;28;20027;-80
2022/06/07 11:01:16;;;;;;;17.33;2.22;;;20.20;99.90;;;;;;4971501;28;20106;-79
2022/06/07 11:03:45;;;;;;;11.45;2.00;;;20.00;99.90;;;;;;4974579;28;20158;-79
2022/06/07 11:09:22;;;;;;;15.23;3.00;;;20.10;99.90;;;;;;4983918;28;20041;-79
2022/06/07 11:11:58;;;;;;;17.30;2.70;;;20.40;99.90;;;;;;4975468;28;20082;-79
2022/06/07 11:14:27;;;;;;;11.75;1.92;;;20.40;99.90;;;;;;4985847;28;20030;-79
2022/06/07 11:17:07;;;;;;;23.10;3.13;;;20.40;99.90;;;;;;4975342;28;20027;-79
2022/06/07 11:19:33;;;;;;;15.93;2.60;;;20.40;99.90;;;;;;4987366;28;20252;-79
2022/06/07 11:22:04;;;;;;;19.17;3.13;;;20.40;99.90;;;;;;4980305;28;20023;-79
2022/06/07 11:24:33;;;;;;;16.77;3.05;;;20.60;99.90;;;;;;4975049;28;20019;-79
2022/06/07 11:27:08;;;;;;;14.32;2.63;;;21.00;99.90;;;;;;4975077;28;20030;-79
2022/06/07 11:29:34;;;;;;;16.23;2.85;;;21.00;99.90;;;;;;4974626;28;20014;-79
2022/06/07 11:32:02;;;;;;;16.00;3.28;;;21.00;99.90;;;;;;4974445;28;20054;-79
2022/06/07 11:34:36;;;;;;;13.65;2.85;;;20.90;99.90;;;;;;4974532;28;20176;-79
2022/06/07 11:37:07;;;;;;;12.30;2.65;;;20.90;99.90;;;;;;4974581;28;20034;-79
2022/06/07 11:39:39;;;;;;;17.45;3.83;;;21.10;99.90;;;;;;4973283;28;20050;-79
2022/06/07 11:42:13;;;;;;;13.82;2.45;;;21.10;99.90;;;;;;4974672;28;20046;-79
2022/06/07 11:44:57;;;;;;;16.38;2.88;;;21.00;99.90;;;;;;4973025;28;20023;-79
2022/06/07 11:47:27;;;;;;;16.10;2.60;;;21.20;99.90;;;;;;4986528;28;20053;-79
2022/06/07 11:49:58;;;;;;;16.17;2.78;;;21.00;99.90;;;;;;4974320;28;20018;-79
2022/06/07 11:52:32;;;;;;;14.48;2.72;;;21.10;99.90;;;;;;4974377;28;20042;-79
2022/06/07 11:55:13;;;;;;;17.15;2.40;;;21.50;99.90;;;;;;4974049;28;20023;-79
2022/06/07 11:58:01;;;;;;;20.60;3.25;;;21.30;99.90;;;;;;4974346;28;20510;-78
2022/06/07 12:00:29;;;;;;;18.05;3.25;;;21.40;99.90;;;;;;4984621;28;20026;-79
2022/06/07 12:03:00;;;;;;;12.65;1.92;;;21.30;99.90;;;;;;4974346;28;20484;-79
2022/06/07 12:05:32;;;;;;;17.00;2.80;;;21.00;99.90;;;;;;4986363;28;20030;-79
2022/06/07 12:08:02;;;;;;;16.98;2.78;;;20.90;99.90;;;;;;4974253;28;20023;-79
2022/06/07 12:10:40;;;;;;;19.15;2.53;;;21.20;99.90;;;;;;4974254;28;20398;-79
2022/06/07 12:13:14;;;;;;;16.58;2.58;;;21.40;99.90;;;;;;4973689;28;20278;-79
2022/06/07 12:15:51;;;;;;;20.13;2.80;;;21.40;99.90;;;;;;4972645;28;20438;-81
2022/06/07 12:18:20;;;;;;;18.50;2.92;;;21.30;99.90;;;;;;4973878;28;20114;-81
2022/06/07 12:21:07;;;;;;;15.48;2.75;;;21.10;99.90;;;;;;4973955;28;20023;-81
2022/06/07 12:23:37;;;;;;;19.13;2.78;;;21.40;99.90;;;;;;4972453;28;20480;-81
2022/06/07 12:26:26;;;;;;;16.65;2.28;;;21.50;99.90;;;;;;4973842;28;20027;-81
2022/06/07 12:28:55;;;;;;;18.73;2.47;;;21.30;99.90;;;;;;4973853;28;20269;-81
2022/06/07 12:31:43;;;;;;;14.63;2.45;;;21.30;99.90;;;;;;4973419;28;20117;-81
2022/06/07 12:34:30;;;;;;;16.20;2.20;;;21.20;99.90;;;;;;4973529;28;20035;-81
2022/06/07 12:37:09;;;;;;;14.55;2.78;;;21.30;99.90;;;;;;4974006;28;20031;-82
2022/06/07 12:39:57;;;;;;;11.90;2.33;;;21.40;99.90;;;;;;4973739;28;20027;-81
2022/06/07 12:42:27;;;;;;;12.05;2.45;;;21.40;99.90;;;;;;4973594;28;20026;-81
2022/06/07 12:45:03;;;;;;;16.40;3.03;;;21.60;99.90;;;;;;4973808;28;20511;-82
2022/06/07 12:47:31;;;;;;;19.10;2.85;;;21.60;99.90;;;;;;4986071;28;20231;-82
2022/06/07 12:49:57;;;;;;;13.63;2.70;;;21.40;99.90;;;;;;4973554;28;20098;-81
2022/06/07 12:52:27;;;;;;;16.67;3.35;;;21.20;99.90;;;;;;4973284;28;20150;-81
2022/06/07 12:55:07;;;;;;;16.42;2.22;;;21.40;99.90;;;;;;4973403;28;20021;-82
2022/06/07 12:57:47;;;;;;;15.40;2.40;;;21.60;99.90;;;;;;4973147;28;20712;-81
2022/06/07 13:00:23;;;;;;;14.75;2.78;;;21.80;99.90;;;;;;4983513;28;20022;-82
2022/06/07 13:02:55;;;;;;;16.60;2.72;;;22.00;99.90;;;;;;4973359;28;20035;-81
2022/06/07 13:05:37;;;;;;;14.45;2.85;;;21.90;99.90;;;;;;4985057;28;20499;-81
2022/06/07 13:08:14;;;;;;;12.27;1.92;;;21.80;99.90;;;;;;4974138;28;20121;-81
2022/06/07 13:10:40;;;;;;;18.40;2.58;;;22.20;99.90;;;;;;4982388;28;20035;-81